Weather at Hartsfield Jackson Atlanta International Airport

Public forecast

Using degrees Fahrenheit for public forecast. Weather courtesy of forecast.io.

Current aviation weather report (METAR) for Hartsfield Jackson Atlanta International Airport

Retrieved 2021/05/12 16:52 UTC (26 minutes ago):

KATL 121652Z 06015G23KT 3SM -RA BR BKN007 OVC012 14/12 A3016 RMK AO2 PK WND 04026/1628 WSHFT 1618 DZE21RAB33 SLP210 CIG 005V009 P0002 T01390122

Aviation forecast (TAF) for Hartsfield Jackson Atlanta International Airport

Retrieved 2021/05/12 12:22 UTC (5 hours ago):

TAF KATL 121120Z 1212/1318 33006KT 6SM -RA BR BKN004 TEMPO 1212/1214 2SM SHRA BR SCT004 BKN020 FM121400 04008KT 3SM -RADZ BR OVC005 FM121900 06013G22KT 6SM BR VCSH OVC008 FM122300 07012G20KT P6SM SCT008 OVC015 FM130400 05008KT P6SM BKN050 FM131100 07009KT P6SM BKN250